Аэропорт: Кокшетау. Кокшетау

ICAO: UACK

METAR:
2020-06-02 09:00:00
UACK 020900Z 33006MPS CAVOK 22/10 Q1012 R02/090070 NOSIG RMK QFE735/0980
METAR:
2020-06-02 08:00:00
TAF UACK 020800Z 0209/0218 32006MPS 9999 SCT030 TEMPO 0209/0212 34008MPS -SHRA BKN020CB